Terminal Aerodrome Forecast
Issued by NWS

Home | Current Version | Previous Version | Text Only | Print | Product List | Glossary On
Versions: 1 2 3 4 5 6 7 8 9 10 11 12 13 14 15 16 17 18 19 20 21
976
FTUS43 KABR 230520
TAFPIR
TAF
KPIR 230520Z 2306/2406 03013KT P6SM BKN013 OVC025
     FM231400 04010KT P6SM VCSH OVC015
     FM231600 05010KT 5SM -SN BR OVC010
     FM231800 06015KT 2SM -SN BR OVC015
     FM232000 04017G24KT 1 1/2SM -SN BLSN BR OVC010
     FM240400 03016KT 3SM -SN BLSN BR OVC020=

USA.gov is the U.S. government's official web portal to all federal, state and local government web resources and services.